Time;durP1;ratioP1;P1;durP2;ratioP2;P2;SDS_P1;SDS_P2;PMS_P1;PMS_P2;Temp;Humidity;BMP_temperature;BMP_pressure;BME280_temperature;BME280_humidity;BME280_pressure;Samples;Min_cycle;Max_cycle;Signal;HPM_P1;HPM_P2
2021/03/13 00:00:05;;;;;;;4.80;0.70;;;;;;;5.69;71.82;95430.66;1023942;28;20060;-56
2021/03/13 00:00:36;;;;;;;4.50;1.38;;;;;;;5.71;71.21;95429.50;1031953;28;20057;-57
2021/03/13 00:01:07;;;;;;;3.38;0.95;;;;;;;5.73;71.12;95434.63;1031986;28;20073;-56
2021/03/13 00:01:37;;;;;;;2.83;0.68;;;;;;;5.65;71.78;95432.78;1031869;28;20018;-56
2021/03/13 00:02:08;;;;;;;4.60;1.00;;;;;;;5.71;71.35;95434.78;1023958;29;20015;-56
2021/03/13 00:02:40;;;;;;;1.92;0.55;;;;;;;5.69;71.50;95433.28;1027865;28;20110;-56
2021/03/13 00:03:11;;;;;;;2.83;0.77;;;;;;;5.64;74.23;95439.03;1027944;28;20097;-57
2021/03/13 00:03:42;;;;;;;2.20;0.85;;;;;;;5.66;72.30;95432.63;1027637;28;20015;-57
2021/03/13 00:04:12;;;;;;;3.28;0.90;;;;;;;5.63;72.11;95435.56;1024049;28;20069;-57
2021/03/13 00:04:43;;;;;;;2.63;0.77;;;;;;;5.70;72.11;95443.69;1027912;28;20014;-56
2021/03/13 00:05:21;;;;;;;3.25;0.90;;;;;;;5.69;71.85;95430.66;1023925;28;20011;-56
2021/03/13 00:05:52;;;;;;;2.90;0.93;;;;;;;5.70;72.69;95441.03;1023749;29;20101;-56
2021/03/13 00:06:23;;;;;;;3.50;0.70;;;;;;;5.70;72.61;95438.41;1023952;28;20015;-57
2021/03/13 00:06:53;;;;;;;4.05;0.80;;;;;;;5.75;71.79;95445.84;1031989;28;20010;-56
2021/03/13 00:07:25;;;;;;;2.25;0.65;;;;;;;5.76;71.98;95445.66;1031966;28;20011;-57
2021/03/13 00:07:55;;;;;;;3.70;0.70;;;;;;;5.78;71.15;95434.97;1023838;28;20494;-57
2021/03/13 00:08:26;;;;;;;2.17;0.57;;;;;;;5.78;71.42;95433.19;1027983;28;20018;-56
2021/03/13 00:08:57;;;;;;;3.60;0.80;;;;;;;5.84;70.97;95444.88;1027969;28;20022;-56
2021/03/13 00:09:27;;;;;;;5.88;1.05;;;;;;;5.82;71.32;95444.22;1027926;28;20541;-56
2021/03/13 00:09:58;;;;;;;2.95;0.55;;;;;;;5.84;70.95;95435.16;1019956;29;20024;-57
2021/03/13 00:10:29;;;;;;;2.80;0.70;;;;;;;5.79;72.24;95445.34;1028017;28;20027;-56
2021/03/13 00:11:00;;;;;;;6.50;0.90;;;;;;;5.84;71.21;95450.16;1031916;28;20207;-57
2021/03/13 00:11:31;;;;;;;5.50;1.27;;;;;;;5.83;71.83;95443.22;1023959;28;20023;-55
2021/03/13 00:12:01;;;;;;;4.57;0.60;;;;;;;5.74;71.05;95418.66;1031750;28;20488;-56
2021/03/13 00:12:32;;;;;;;4.22;0.90;;;;;;;5.83;71.57;95438.81;1027844;28;20090;-56
2021/03/13 00:13:04;;;;;;;3.38;0.60;;;;;;;5.85;71.17;95441.25;1035948;28;20018;-56
2021/03/13 00:13:35;;;;;;;4.03;0.75;;;;;;;5.84;71.38;95437.81;1031743;28;20575;-57
2021/03/13 00:14:05;;;;;;;3.63;0.80;;;;;;;5.88;71.22;95461.19;1039864;28;20021;-56
2021/03/13 00:14:36;;;;;;;3.20;0.80;;;;;;;5.89;71.58;95461.03;1027836;28;20106;-55
2021/03/13 00:15:08;;;;;;;4.63;0.80;;;;;;;5.93;70.97;95451.00;1027965;28;20384;-56
2021/03/13 00:15:40;;;;;;;4.85;0.93;;;;;;;5.97;70.23;95447.91;1031780;28;20449;-56
2021/03/13 00:16:11;;;;;;;2.00;0.50;;;;;;;5.96;71.26;95446.28;1023678;28;20520;-57
2021/03/13 00:16:42;;;;;;;3.88;0.80;;;;;;;5.97;70.19;95447.09;1023848;29;20133;-56
2021/03/13 00:17:12;;;;;;;4.15;1.13;;;;;;;5.98;70.81;95451.38;1028046;28;20035;-56
2021/03/13 00:17:44;;;;;;;4.63;0.80;;;;;;;5.97;70.93;95445.28;1031802;28;20041;-57
2021/03/13 00:18:15;;;;;;;5.18;0.70;;;;;;;5.97;71.29;95442.63;1031808;28;20170;-56
2021/03/13 00:18:46;;;;;;;3.00;0.88;;;;;;;5.96;70.88;95445.47;1031881;28;20022;-57
2021/03/13 00:19:16;;;;;;;1.98;0.50;;;;;;;6.01;70.63;95454.53;1023923;28;20019;-55
2021/03/13 00:19:47;;;;;;;3.13;0.68;;;;;;;6.02;70.41;95445.63;1027852;28;20050;-56
2021/03/13 00:20:23;;;;;;;4.25;0.82;;;;;;;6.02;70.77;95442.16;1027742;28;20026;-56
2021/03/13 00:20:54;;;;;;;2.80;0.65;;;;;;;5.92;71.82;95444.06;1019852;29;20098;-56
2021/03/13 00:21:25;;;;;;;1.63;0.50;;;;;;;5.90;71.47;95438.16;1027940;28;20517;-56
2021/03/13 00:21:56;;;;;;;1.83;0.63;;;;;;;5.95;71.78;95446.41;1031824;28;20105;-56
2021/03/13 00:22:26;;;;;;;4.00;1.33;;;;;;;5.95;71.19;95451.66;1023753;28;20079;-56
2021/03/13 00:22:57;;;;;;;3.88;0.80;;;;;;;5.94;71.47;95440.31;1031995;28;20377;-57
2021/03/13 00:23:28;;;;;;;2.40;0.70;;;;;;;5.97;70.75;95444.47;1036010;28;20024;-57
2021/03/13 00:23:59;;;;;;;2.30;0.73;;;;;;;6.09;69.94;95456.34;1035729;28;20028;-57
2021/03/13 00:24:30;;;;;;;3.20;0.82;;;;;;;6.14;69.59;95451.44;1039861;28;20399;-56
2021/03/13 00:25:01;;;;;;;5.30;1.23;;;;;;;6.15;69.80;95429.34;1036009;28;20072;-57
2021/03/13 00:25:32;;;;;;;5.15;0.93;;;;;;;6.18;69.66;95454.56;1019807;29;20019;-56
2021/03/13 00:26:03;;;;;;;3.95;0.77;;;;;;;6.17;69.84;95435.28;1023828;28;20520;-56
2021/03/13 00:26:34;;;;;;;2.80;0.95;;;;;;;6.12;70.06;95456.03;1027696;28;20029;-56
2021/03/13 00:27:05;;;;;;;3.03;0.70;;;;;;;6.15;70.74;95452.28;1035885;28;20018;-56
2021/03/13 00:27:45;;;;;;;3.50;0.60;;;;;;;6.16;69.90;95433.63;1031785;28;20021;-54
2021/03/13 00:28:16;;;;;;;3.28;0.70;;;;;;;6.16;70.37;95443.34;1027907;28;20473;-56
2021/03/13 00:28:47;;;;;;;4.65;0.95;;;;;;;6.15;70.11;95433.81;1031445;28;20045;-56
2021/03/13 00:29:18;;;;;;;1.13;0.60;;;;;;;6.11;70.70;95435.94;1027900;28;20022;-56
2021/03/13 00:29:49;;;;;;;4.03;0.88;;;;;;;6.12;70.46;95442.03;1031923;28;20101;-57
2021/03/13 00:30:30;;;;;;;3.63;0.73;;;;;;;6.06;71.02;95447.94;1027830;28;20113;-56
2021/03/13 00:31:01;;;;;;;3.42;0.90;;;;;;;6.06;71.05;95443.50;1023854;28;20023;-57
2021/03/13 00:31:31;;;;;;;3.95;0.90;;;;;;;6.04;71.71;95441.03;1023817;28;20110;-57
2021/03/13 00:32:02;;;;;;;4.15;1.38;;;;;;;6.01;71.96;95440.53;1027738;28;20448;-56
2021/03/13 00:32:33;;;;;;;2.15;0.52;;;;;;;5.98;72.05;95444.31;1019817;29;20509;-56
2021/03/13 00:33:06;;;;;;;2.78;0.70;;;;;;;6.01;71.48;95437.91;1019894;29;20024;-53
2021/03/13 00:33:37;;;;;;;2.95;0.65;;;;;;;6.00;71.81;95438.88;1023534;29;20027;-53
2021/03/13 00:34:08;;;;;;;1.95;0.60;;;;;;;5.97;71.95;95439.19;1027823;28;20029;-56
2021/03/13 00:34:38;;;;;;;2.33;0.75;;;;;;;6.01;72.02;95443.16;1019787;28;20486;-55
2021/03/13 00:35:10;;;;;;;2.17;0.73;;;;;;;6.01;71.78;95446.63;1027775;28;20036;-57
2021/03/13 00:35:41;;;;;;;3.88;1.05;;;;;;;5.96;72.04;95432.28;1023759;28;20079;-56
2021/03/13 00:36:12;;;;;;;2.25;1.10;;;;;;;6.00;72.21;95430.97;1027659;28;20032;-57
2021/03/13 00:36:43;;;;;;;2.63;0.80;;;;;;;6.00;72.25;95441.50;1027757;28;20401;-57
2021/03/13 00:37:14;;;;;;;2.75;1.00;;;;;;;5.92;73.88;95454.63;1027730;28;20070;-55
2021/03/13 00:37:45;;;;;;;5.10;0.70;;;;;;;5.93;72.68;95437.84;1027714;28;20061;-57
2021/03/13 00:38:16;;;;;;;4.43;1.10;;;;;;;5.96;72.24;95442.81;1023780;29;20029;-57
2021/03/13 00:38:47;;;;;;;4.18;0.80;;;;;;;6.00;72.50;95444.16;1027741;28;20057;-56
2021/03/13 00:39:18;;;;;;;3.58;0.70;;;;;;;6.03;72.64;95449.09;1027699;28;20015;-57
2021/03/13 00:39:48;;;;;;;3.10;0.70;;;;;;;6.02;72.73;95437.72;1027774;28;20117;-56
2021/03/13 00:40:21;;;;;;;2.38;1.00;;;;;;;6.03;72.61;95451.75;1035780;28;20509;-56
2021/03/13 00:40:51;;;;;;;5.22;0.65;;;;;;;6.05;72.50;95441.84;1031805;28;20027;-57
2021/03/13 00:41:22;;;;;;;2.97;0.70;;;;;;;6.04;72.52;95434.91;1031842;28;20014;-57
2021/03/13 00:41:53;;;;;;;2.92;0.60;;;;;;;6.04;73.84;95442.81;1027781;28;20034;-57
2021/03/13 00:42:23;;;;;;;2.60;0.80;;;;;;;6.05;73.81;95433.94;1035907;28;20029;-57
2021/03/13 00:42:54;;;;;;;3.72;0.63;;;;;;;6.10;72.54;95444.03;1031737;28;20109;-57
2021/03/13 00:43:25;;;;;;;2.85;0.70;;;;;;;6.09;73.46;95448.44;1031639;28;20018;-56
2021/03/13 00:43:56;;;;;;;2.13;0.70;;;;;;;6.09;73.78;95427.34;1035592;28;20030;-57
2021/03/13 00:44:26;;;;;;;5.00;1.00;;;;;;;6.09;73.49;95442.34;1023789;28;20019;-56
2021/03/13 00:44:57;;;;;;;4.13;0.82;;;;;;;6.08;73.61;95424.88;1027666;28;20023;-56
2021/03/13 00:45:28;;;;;;;4.18;0.80;;;;;;;6.08;73.14;95420.44;1023731;28;20015;-56
2021/03/13 00:45:58;;;;;;;5.72;0.77;;;;;;;6.04;74.08;95443.66;1023629;29;20027;-56
2021/03/13 00:46:29;;;;;;;4.10;0.90;;;;;;;6.06;73.96;95447.94;1027721;28;20022;-57
2021/03/13 00:47:00;;;;;;;2.35;0.60;;;;;;;6.08;73.68;95445.97;1019840;28;20119;-56
2021/03/13 00:47:31;;;;;;;3.92;0.80;;;;;;;6.08;73.28;95443.34;1031671;28;20018;-57
2021/03/13 00:48:01;;;;;;;2.92;0.63;;;;;;;6.10;73.48;95438.75;1023730;28;20016;-57
2021/03/13 00:48:32;;;;;;;1.98;0.52;;;;;;;6.06;73.05;95426.84;1031425;28;20480;-57
2021/03/13 00:49:04;;;;;;;3.53;0.82;;;;;;;6.20;73.19;95452.59;1023687;28;20019;-56
2021/03/13 00:49:35;;;;;;;2.80;0.70;;;;;;;6.18;73.25;95442.22;1027719;28;20023;-56
2021/03/13 00:50:06;;;;;;;3.55;0.75;;;;;;;6.21;72.73;95447.16;1023765;28;20086;-57
2021/03/13 00:50:38;;;;;;;5.35;1.42;;;;;;;6.24;72.80;95469.75;1019893;29;20019;-57
2021/03/13 00:51:09;;;;;;;3.35;1.02;;;;;;;6.28;72.77;95442.06;1019937;28;20019;-56
2021/03/13 00:51:39;;;;;;;2.33;0.70;;;;;;;6.27;72.85;95439.59;1027729;28;20101;-56
2021/03/13 00:52:10;;;;;;;3.45;0.80;;;;;;;6.23;73.52;95433.81;1023668;29;20022;-57
2021/03/13 00:52:41;;;;;;;3.47;0.90;;;;;;;6.18;73.67;95439.59;1023780;29;20054;-57
2021/03/13 00:53:13;;;;;;;5.28;1.10;;;;;;;6.20;73.07;95452.59;1019742;28;20035;-56
2021/03/13 00:53:44;;;;;;;3.13;0.68;;;;;;;6.17;73.30;95437.13;1031529;28;20025;-57
2021/03/13 00:54:14;;;;;;;3.92;0.88;;;;;;;6.12;74.50;95450.75;1031870;28;20034;-56
2021/03/13 00:54:45;;;;;;;1.63;0.63;;;;;;;6.09;74.35;95448.44;1027766;28;20461;-56
2021/03/13 00:55:16;;;;;;;2.63;0.82;;;;;;;6.08;74.66;95446.81;1031636;28;20427;-56
2021/03/13 00:55:47;;;;;;;2.90;0.93;;;;;;;6.08;74.77;95441.53;1027581;28;20050;-57
2021/03/13 00:56:18;;;;;;;2.75;0.70;;;;;;;6.03;75.78;95433.28;1027585;28;20117;-57
2021/03/13 00:56:48;;;;;;;2.95;0.70;;;;;;;6.04;74.93;95445.47;1023734;29;20097;-57
2021/03/13 00:57:19;;;;;;;4.00;1.00;;;;;;;6.09;74.35;95431.81;1027665;28;20026;-57
2021/03/13 00:57:50;;;;;;;5.18;0.93;;;;;;;6.12;74.19;95452.59;1023736;28;20033;-57
2021/03/13 00:58:21;;;;;;;4.47;0.90;;;;;;;6.14;74.63;95440.06;1027694;28;20531;-57
2021/03/13 00:58:52;;;;;;;2.05;0.70;;;;;;;6.11;74.54;95435.94;1027682;28;20069;-54
2021/03/13 00:59:22;;;;;;;3.67;0.57;;;;;;;6.11;75.11;95435.09;1023771;28;20054;-57
2021/03/13 00:59:53;;;;;;;2.95;0.75;;;;;;;6.16;74.36;95417.00;1027546;28;20023;-55
2021/03/13 01:00:25;;;;;;;4.65;1.00;;;;;;;6.20;73.67;95449.94;1035712;28;20018;-56
2021/03/13 01:00:55;;;;;;;3.80;0.80;;;;;;;6.20;73.89;95439.41;1023747;28;20028;-57
2021/03/13 01:01:26;;;;;;;2.63;0.60;;;;;;;6.17;74.00;95437.13;1035818;28;20058;-56
2021/03/13 01:01:57;;;;;;;2.58;0.60;;;;;;;6.13;74.45;95446.31;1027828;28;20548;-56
2021/03/13 01:02:28;;;;;;;6.85;1.38;;;;;;;6.05;74.71;95436.59;1019620;28;20114;-56
2021/03/13 01:02:59;;;;;;;4.55;1.10;;;;;;;6.07;75.22;95442.50;1031747;28;20542;-56
2021/03/13 01:03:30;;;;;;;3.88;0.70;;;;;;;6.10;74.88;95449.28;1031609;28;20510;-55
2021/03/13 01:04:00;;;;;;;4.95;0.95;;;;;;;6.10;74.34;95434.28;1027591;28;20031;-56
2021/03/13 01:04:31;;;;;;;2.42;0.80;;;;;;;6.10;74.63;95423.75;1031594;28;20045;-56
2021/03/13 01:05:03;;;;;;;3.80;0.98;;;;;;;6.07;75.23;95439.88;1031711;28;20026;-56
2021/03/13 01:05:34;;;;;;;3.80;0.82;;;;;;;6.07;74.58;95439.06;1019746;29;20119;-56
2021/03/13 01:06:05;;;;;;;5.75;1.00;;;;;;;6.02;75.18;95442.16;1023566;29;20095;-56
2021/03/13 01:06:35;;;;;;;1.27;0.60;;;;;;;5.99;75.84;95434.56;1023598;29;20077;-55
2021/03/13 01:07:06;;;;;;;4.47;0.65;;;;;;;6.02;75.39;95444.81;1035670;28;20125;-57
2021/03/13 01:07:37;;;;;;;2.88;0.80;;;;;;;6.04;75.03;95440.19;1023758;28;20126;-56
2021/03/13 01:08:08;;;;;;;1.85;0.70;;;;;;;6.02;75.31;95435.06;1027614;28;20027;-57
2021/03/13 01:08:39;;;;;;;2.55;0.70;;;;;;;6.00;76.05;95450.22;1027573;28;20050;-56
2021/03/13 01:09:10;;;;;;;6.57;0.95;;;;;;;5.97;76.37;95442.63;1027645;28;20023;-55
2021/03/13 01:09:40;;;;;;;3.38;0.80;;;;;;;5.95;76.20;95427.94;1035777;28;20546;-56
2021/03/13 01:10:20;;;;;;;6.05;0.95;;;;;;;5.97;76.24;95450.53;1027739;28;20600;-56
2021/03/13 01:10:51;;;;;;;4.00;0.80;;;;;;;5.88;76.24;95422.50;1019787;28;20027;-56
2021/03/13 01:11:21;;;;;;;3.35;0.70;;;;;;;5.93;77.10;95446.56;1031703;28;20050;-56
2021/03/13 01:11:54;;;;;;;2.85;0.50;;;;;;;5.89;76.92;95454.94;1035733;28;20033;-56
2021/03/13 01:12:25;;;;;;;2.20;0.60;;;;;;;5.88;76.73;95448.03;1031589;28;20092;-56
2021/03/13 01:12:56;;;;;;;6.22;1.20;;;;;;;5.85;77.09;95442.09;1027561;28;20081;-52
2021/03/13 01:13:27;;;;;;;1.98;0.70;;;;;;;5.90;76.83;95448.69;1019789;29;20024;-56
2021/03/13 01:13:57;;;;;;;3.08;0.57;;;;;;;5.91;76.28;95434.53;1019520;29;20027;-54
2021/03/13 01:14:28;;;;;;;7.13;1.30;;;;;;;5.91;76.55;95442.44;1031715;28;20209;-56
2021/03/13 01:14:59;;;;;;;3.55;1.10;;;;;;;5.85;77.38;95442.09;1023601;28;20058;-55
2021/03/13 01:15:30;;;;;;;1.88;0.70;;;;;;;5.85;78.16;95446.53;1031726;28;20410;-57
2021/03/13 01:16:00;;;;;;;3.97;1.00;;;;;;;5.76;79.54;95450.13;1027558;28;20023;-55
2021/03/13 01:16:31;;;;;;;1.55;0.60;;;;;;;5.73;78.93;95435.47;1031771;28;20014;-56
2021/03/13 01:17:02;;;;;;;5.03;0.88;;;;;;;5.76;78.66;95458.84;1031681;28;20080;-56
2021/03/13 01:17:33;;;;;;;4.65;0.70;;;;;;;5.85;78.19;95447.38;1031694;28;20014;-56
2021/03/13 01:18:03;;;;;;;3.20;0.77;;;;;;;5.86;77.63;95459.53;1035668;28;20010;-56
2021/03/13 01:18:34;;;;;;;3.40;0.80;;;;;;;5.85;77.74;95451.78;1027759;28;20019;-56
2021/03/13 01:19:05;;;;;;;5.22;0.85;;;;;;;5.92;77.21;95451.97;1019835;28;20369;-56
2021/03/13 01:19:36;;;;;;;2.63;0.60;;;;;;;5.91;77.57;95442.44;1027662;28;20019;-56
2021/03/13 01:20:08;;;;;;;4.47;1.00;;;;;;;5.89;77.76;95457.56;1027561;28;20019;-56
2021/03/13 01:20:39;;;;;;;2.85;0.90;;;;;;;5.84;78.96;95450.16;1027770;28;20029;-56
2021/03/13 01:21:10;;;;;;;3.47;0.90;;;;;;;5.83;78.41;95449.34;1031437;28;20073;-57
2021/03/13 01:21:41;;;;;;;6.65;1.23;;;;;;;5.80;78.55;95440.91;1031685;28;20029;-56
2021/03/13 01:22:12;;;;;;;4.40;0.80;;;;;;;5.83;78.63;95454.63;1039827;28;20065;-55
2021/03/13 01:22:42;;;;;;;1.85;0.88;;;;;;;5.86;78.25;95459.53;1027643;28;20445;-56
2021/03/13 01:23:13;;;;;;;3.22;0.73;;;;;;;5.89;78.02;95441.75;1035667;28;20010;-56
2021/03/13 01:23:44;;;;;;;2.60;1.05;;;;;;;5.88;77.96;95440.13;1031489;28;20015;-57
2021/03/13 01:24:15;;;;;;;3.65;0.70;;;;;;;5.87;78.24;95444.56;1031511;28;20011;-57
2021/03/13 01:24:45;;;;;;;4.20;1.10;;;;;;;5.87;78.54;95452.47;1035721;28;20017;-56
2021/03/13 01:25:16;;;;;;;1.92;0.70;;;;;;;5.85;78.53;95444.72;1035609;28;20014;-57
2021/03/13 01:25:47;;;;;;;2.97;0.52;;;;;;;5.86;77.96;95445.53;1031585;28;20452;-57
2021/03/13 01:26:17;;;;;;;4.03;0.68;;;;;;;5.89;78.04;95447.88;1027635;28;20075;-56
2021/03/13 01:26:48;;;;;;;4.82;0.70;;;;;;;5.92;77.87;95459.88;1027621;28;20377;-56
2021/03/13 01:27:19;;;;;;;2.15;0.50;;;;;;;5.91;78.90;95443.25;1027536;28;20157;-57
2021/03/13 01:27:50;;;;;;;2.92;0.73;;;;;;;5.81;78.37;95424.94;1031628;28;20447;-57
2021/03/13 01:28:21;;;;;;;2.58;0.60;;;;;;;5.95;78.71;95430.59;1031539;28;20040;-56
2021/03/13 01:28:52;;;;;;;1.35;0.70;;;;;;;5.98;77.78;95436.38;1019649;29;20082;-57
2021/03/13 01:29:22;;;;;;;2.95;0.57;;;;;;;6.01;77.44;95445.81;1027536;28;20097;-56
2021/03/13 01:29:54;;;;;;;2.55;0.77;;;;;;;6.04;77.84;95440.19;1035753;28;20487;-56
2021/03/13 01:30:25;;;;;;;3.50;1.00;;;;;;;6.02;78.23;95450.06;1027643;28;20027;-56
2021/03/13 01:30:55;;;;;;;3.20;0.50;;;;;;;6.03;77.67;95446.47;1027709;28;20509;-56
2021/03/13 01:31:26;;;;;;;3.75;0.90;;;;;;;6.04;77.76;95434.91;1027494;28;20035;-56
2021/03/13 01:32:02;;;;;;;2.35;0.77;;;;;;;6.06;77.87;95438.25;1027616;28;20392;-56
2021/03/13 01:32:33;;;;;;;2.83;0.60;;;;;;;6.07;77.91;95433.78;1031620;28;20053;-57
2021/03/13 01:33:04;;;;;;;2.58;0.70;;;;;;;6.05;77.78;95436.59;1031682;28;20075;-56
2021/03/13 01:33:35;;;;;;;7.68;1.40;;;;;;;6.02;78.76;95437.72;1035388;28;20021;-57
2021/03/13 01:34:05;;;;;;;3.58;0.82;;;;;;;5.99;78.32;95443.31;1031554;28;20037;-56
2021/03/13 01:34:36;;;;;;;1.80;0.70;;;;;;;5.99;78.67;95438.06;1031601;28;20030;-57
2021/03/13 01:35:08;;;;;;;2.50;0.70;;;;;;;5.97;78.53;95437.38;1023619;29;20019;-56
2021/03/13 01:35:38;;;;;;;5.18;1.10;;;;;;;5.98;78.48;95435.56;1023444;29;20031;-56
2021/03/13 01:36:09;;;;;;;3.10;0.95;;;;;;;5.96;79.26;95437.56;1027503;28;20568;-56
2021/03/13 01:36:40;;;;;;;3.15;0.90;;;;;;;5.96;78.60;95433.09;1027629;28;20069;-57
2021/03/13 01:37:13;;;;;;;1.48;0.60;;;;;;;5.92;79.36;95430.91;1019887;29;20024;-56
2021/03/13 01:37:44;;;;;;;3.95;1.00;;;;;;;5.91;79.33;95434.53;1023487;28;20027;-57
2021/03/13 01:38:15;;;;;;;4.95;1.05;;;;;;;5.93;78.96;95432.56;1031645;28;20022;-56
2021/03/13 01:38:45;;;;;;;1.48;0.60;;;;;;;5.91;79.82;95431.91;1023633;29;20110;-57
2021/03/13 01:39:16;;;;;;;5.20;1.08;;;;;;;5.89;79.78;95428.56;1027584;28;20023;-56
2021/03/13 01:39:47;;;;;;;3.80;0.82;;;;;;;5.78;79.90;95414.75;1023584;28;20058;-56
2021/03/13 01:40:18;;;;;;;3.47;1.00;;;;;;;5.86;80.11;95425.28;1031547;28;20096;-57
2021/03/13 01:40:48;;;;;;;4.47;1.27;;;;;;;5.83;79.89;95428.25;1019751;29;20418;-57
2021/03/13 01:41:19;;;;;;;8.48;1.13;;;;;;;5.83;80.16;95423.00;1027558;28;20098;-57
2021/03/13 01:41:50;;;;;;;2.05;0.57;;;;;;;5.84;79.47;95423.81;1027416;28;20023;-56
2021/03/13 01:42:21;;;;;;;3.22;0.77;;;;;;;5.85;79.04;95420.16;1019658;28;20154;-55
2021/03/13 01:42:51;;;;;;;2.45;0.60;;;;;;;5.86;78.87;95419.19;1031669;28;20030;-57
2021/03/13 01:43:22;;;;;;;6.85;1.38;;;;;;;5.84;79.84;95427.25;1031542;28;20022;-57
2021/03/13 01:43:52;;;;;;;4.72;1.27;;;;;;;5.86;78.62;95419.19;1023283;28;20110;-55
2021/03/13 01:44:23;;;;;;;1.67;0.75;;;;;;;5.84;79.16;95419.34;1031555;28;20615;-56
2021/03/13 01:44:54;;;;;;;3.83;1.02;;;;;;;5.83;79.52;95419.50;1031497;28;20530;-56
2021/03/13 01:45:24;;;;;;;3.17;0.68;;;;;;;5.78;79.85;95422.66;1027559;28;20019;-57
2021/03/13 01:45:55;;;;;;;3.60;0.90;;;;;;;5.78;79.23;95413.88;1031328;28;20025;-56
2021/03/13 01:46:26;;;;;;;5.28;1.00;;;;;;;5.79;79.07;95416.38;1027639;28;20003;-57
2021/03/13 01:46:57;;;;;;;5.00;1.13;;;;;;;5.76;79.31;95415.88;1027623;28;20019;-56
2021/03/13 01:47:28;;;;;;;2.75;0.70;;;;;;;5.73;79.16;95411.75;1027618;28;20070;-55
2021/03/13 01:47:59;;;;;;;2.25;0.75;;;;;;;5.75;79.27;95424.78;1031424;28;20400;-56
2021/03/13 01:48:31;;;;;;;4.35;1.00;;;;;;;5.70;79.85;95421.78;1023637;28;20008;-56
2021/03/13 01:49:01;;;;;;;4.05;1.27;;;;;;;5.71;79.25;95429.50;1027546;28;20018;-56
2021/03/13 01:49:32;;;;;;;2.42;0.88;;;;;;;5.71;78.94;95424.25;1035698;28;20018;-57
2021/03/13 01:50:05;;;;;;;1.95;0.80;;;;;;;5.71;78.89;95408.44;1023506;28;20474;-56
2021/03/13 01:50:36;;;;;;;1.90;0.88;;;;;;;5.70;78.58;95412.06;1019711;29;20478;-56
2021/03/13 01:51:07;;;;;;;4.65;0.88;;;;;;;5.70;78.72;95422.59;1031583;28;20011;-56
2021/03/13 01:51:37;;;;;;;4.90;0.93;;;;;;;5.70;78.90;95416.53;1035679;28;20019;-57
2021/03/13 01:52:08;;;;;;;2.75;0.98;;;;;;;5.67;78.90;95413.19;1027471;28;20007;-57
2021/03/13 01:52:39;;;;;;;3.45;0.70;;;;;;;5.61;79.15;95397.22;1031544;28;20057;-56
2021/03/13 01:53:09;;;;;;;3.03;0.70;;;;;;;5.70;79.14;95422.59;1027645;28;20443;-57
2021/03/13 01:53:40;;;;;;;2.08;0.80;;;;;;;5.69;79.00;95410.41;1027452;28;20011;-56
2021/03/13 01:54:11;;;;;;;3.38;0.80;;;;;;;5.69;79.13;95407.78;1035952;28;20014;-57
2021/03/13 01:54:42;;;;;;;5.30;0.82;;;;;;;5.70;78.73;95405.97;1025420;29;20019;-56
2021/03/13 01:55:13;;;;;;;4.13;1.23;;;;;;;5.67;79.16;95401.84;1031616;28;20109;-56
2021/03/13 01:55:43;;;;;;;2.88;0.90;;;;;;;5.61;78.80;95403.31;1019685;29;20394;-57
2021/03/13 01:56:15;;;;;;;2.08;0.90;;;;;;;5.67;79.18;95407.09;1019994;28;20016;-57
2021/03/13 01:56:48;;;;;;;2.58;0.90;;;;;;;5.63;79.03;95403.16;1019692;29;20024;-57
2021/03/13 01:57:19;;;;;;;4.38;0.98;;;;;;;5.59;79.80;95401.81;1023615;29;20039;-56
2021/03/13 01:57:50;;;;;;;3.30;0.70;;;;;;;5.62;79.68;95401.50;1027545;28;20504;-56
2021/03/13 01:58:21;;;;;;;3.42;0.98;;;;;;;5.63;80.16;95406.59;1027486;28;20027;-57
2021/03/13 01:58:52;;;;;;;4.60;1.27;;;;;;;5.62;80.28;95401.50;1031615;28;20030;-56
2021/03/13 01:59:22;;;;;;;2.53;0.70;;;;;;;5.63;79.89;95401.34;1027656;28;20085;-57
2021/03/13 01:59:53;;;;;;;4.20;0.90;;;;;;;5.50;80.53;95384.31;1027685;28;20505;-54
2021/03/13 02:00:25;;;;;;;1.95;0.70;;;;;;;5.59;80.23;95392.13;1027474;28;20058;-57
2021/03/13 02:00:55;;;;;;;4.00;0.70;;;;;;;5.59;80.50;95392.13;1020313;28;20034;-56
2021/03/13 02:01:26;;;;;;;7.32;1.13;;;;;;;5.56;80.92;95384.53;1032471;28;20519;-57
2021/03/13 02:01:57;;;;;;;4.90;1.38;;;;;;;5.57;80.43;95386.16;1032608;28;20436;-57
2021/03/13 02:02:27;;;;;;;6.13;0.88;;;;;;;5.51;80.99;95396.53;1024254;29;20019;-56
2021/03/13 02:02:58;;;;;;;3.03;0.70;;;;;;;5.50;81.46;95393.03;1024466;28;20031;-57
2021/03/13 02:03:29;;;;;;;3.78;1.00;;;;;;;5.48;81.35;95392.38;1036336;28;20022;-55
2021/03/13 02:04:00;;;;;;;2.05;0.70;;;;;;;5.46;82.11;95391.72;1028359;28;20031;-56
2021/03/13 02:04:31;;;;;;;2.70;0.65;;;;;;;5.47;81.22;95386.28;1032458;28;20165;-57
2021/03/13 02:05:08;;;;;;;2.72;0.52;;;;;;;5.51;81.70;95378.09;1036410;28;20026;-57
2021/03/13 02:05:42;;;;;;;3.72;0.63;;;;;;;5.52;80.92;95382.34;1032321;28;20022;-56
2021/03/13 02:06:13;;;;;;;3.97;1.02;;;;;;;5.51;81.60;95378.91;1024261;28;20023;-57
2021/03/13 02:06:50;;;;;;;3.03;0.80;;;;;;;5.56;81.04;95378.44;1032222;28;20460;-56
2021/03/13 02:07:30;;;;;;;2.47;0.60;;;;;;;5.57;81.12;95380.06;1024435;28;20019;-57
2021/03/13 02:08:21;;;;;;;1.45;0.50;;;;;;;5.51;80.68;95378.09;1028475;28;20591;-56
2021/03/13 02:09:02;;;;;;;2.47;0.93;;;;;;;5.51;81.69;95391.25;1024460;28;20046;-56
2021/03/13 02:09:38;;;;;;;1.80;0.60;;;;;;;5.52;81.34;95383.19;1032464;28;20018;-56
2021/03/13 02:10:13;;;;;;;3.25;0.93;;;;;;;5.55;80.96;95385.50;1036431;28;20060;-56
2021/03/13 02:10:55;;;;;;;3.30;0.90;;;;;;;5.56;80.98;95383.72;1028370;28;20126;-56
2021/03/13 02:11:37;;;;;;;3.78;0.80;;;;;;;5.48;80.90;95366.88;1036567;28;20025;-57
2021/03/13 02:12:26;;;;;;;2.28;0.68;;;;;;;5.52;81.41;95377.09;1028400;28;20036;-56
2021/03/13 02:13:07;;;;;;;3.05;0.60;;;;;;;5.46;81.63;95374.09;1028225;28;20113;-57
2021/03/13 02:13:42;;;;;;;4.60;1.15;;;;;;;5.45;81.45;95371.63;1032216;28;20026;-54
2021/03/13 02:14:25;;;;;;;2.35;0.75;;;;;;;5.42;82.01;95372.78;1036404;28;20395;-56
2021/03/13 02:15:06;;;;;;;6.07;0.82;;;;;;;5.44;81.84;95383.16;1028251;28;20033;-56
2021/03/13 02:15:48;;;;;;;3.17;0.77;;;;;;;5.43;81.72;95384.97;1028279;28;20023;-55
2021/03/13 02:16:22;;;;;;;1.38;0.63;;;;;;;5.49;81.78;95378.25;1036143;28;20030;-56
2021/03/13 02:17:03;;;;;;;4.32;0.70;;;;;;;5.48;81.91;95373.94;1033006;28;20036;-57
2021/03/13 02:17:39;;;;;;;6.38;1.33;;;;;;;5.47;81.40;95381.03;1020318;29;20031;-56
2021/03/13 02:18:19;;;;;;;2.97;1.10;;;;;;;5.46;82.35;95384.63;1027104;28;20049;-57
2021/03/13 02:18:59;;;;;;;;;;;;;;;5.43;82.15;95373.59;1028810;28;20054;-56
2021/03/13 02:19:49;;;;;;;3.47;0.65;;;;;;;5.40;82.62;95373.91;1024224;28;20419;-55
2021/03/13 02:20:39;;;;;;;3.95;0.82;;;;;;;5.37;83.21;95369.78;1032277;28;20070;-55
2021/03/13 02:21:21;;;;;;;3.13;0.70;;;;;;;5.40;82.31;95379.16;1029490;28;20034;-53
2021/03/13 02:21:58;;;;;;;3.60;0.75;;;;;;;5.36;83.17;95362.88;1032069;28;20049;-57
2021/03/13 02:22:31;;;;;;;1.90;0.73;;;;;;;5.42;82.86;95375.41;1032347;28;20022;-56
2021/03/13 02:23:02;;;;;;;3.75;1.25;;;;;;;5.46;82.66;95363.56;1028258;28;20035;-55
2021/03/13 02:23:41;;;;;;;5.03;0.90;;;;;;;5.46;82.54;95365.38;1024069;28;20055;-56
2021/03/13 02:24:28;;;;;;;2.83;0.70;;;;;;;5.44;82.71;95362.91;1028374;28;20022;-56
2021/03/13 02:25:00;;;;;;;5.75;1.13;;;;;;;5.43;83.37;95368.31;1028335;28;20031;-56
2021/03/13 02:25:44;;;;;;;2.80;0.80;;;;;;;5.40;83.53;95374.75;1028272;28;20490;-56
2021/03/13 02:26:29;;;;;;;3.50;0.80;;;;;;;5.42;83.59;95361.44;1032291;28;20041;-53
2021/03/13 02:27:06;;;;;;;1.48;0.60;;;;;;;5.43;83.44;95368.31;1036507;28;20044;-56
2021/03/13 02:27:41;;;;;;;2.58;0.95;;;;;;;5.34;83.78;95351.69;1032260;28;20077;-56
2021/03/13 02:28:24;;;;;;;3.33;0.70;;;;;;;5.41;83.78;95373.75;1028278;28;20022;-56
2021/03/13 02:29:19;;;;;;;2.47;0.80;;;;;;;5.42;83.58;95370.16;1036491;28;20022;-56
2021/03/13 02:30:00;;;;;;;3.40;0.80;;;;;;;5.38;84.58;95367.97;1034283;28;20114;-57
2021/03/13 02:30:31;;;;;;;1.38;0.50;;;;;;;5.37;84.20;95369.78;1039185;28;20020;-56
2021/03/13 02:31:02;;;;;;;2.45;0.80;;;;;;;5.36;84.77;95368.13;1024363;29;20015;-57
2021/03/13 02:31:34;;;;;;;3.55;1.02;;;;;;;5.33;85.60;95357.94;1032230;28;20018;-57
2021/03/13 02:32:08;;;;;;;2.63;0.77;;;;;;;5.35;85.37;95360.41;1032360;28;20022;-56
2021/03/13 02:32:41;;;;;;;2.83;0.63;;;;;;;5.35;84.87;95363.88;1028337;28;20467;-56
2021/03/13 02:33:24;;;;;;;2.60;0.60;;;;;;;5.31;85.59;95365.16;1022503;28;20023;-57
2021/03/13 02:33:57;;;;;;;3.13;0.65;;;;;;;5.29;86.09;95365.34;1030500;28;20023;-56